Das ist die Wetter- und Hausseite der Bittkau's aus Magdeburg Ottersleben


Hier werden aktuelle Daten aus der privaten Wetterstation und

andere lokale Wettervorhersagen bereitgestellt




Thunder radar more information blitzortung!


Rain radar more information rain snow radar



Es ist keine erhöhte Aufmerksamkeit aufgrund des Wetters notwendig.    Es gibt keine Warnungen.

METAR-Meldungen aus der Umgebung

   
EDDP - Leipzig
Aktualisierung: 23.09.2019 10:20
Klar  
Klar  
   Wind: WNW 11.1 km/h
Wind: WNW 11.1 km/h
Temperatur: 16°C
Taupunkt: 13°C
Luftfeuchte: 83%
Luftdruck: 1015 hPa
Sichtbarkeit: More than 10 km
Bewölkung: Klar
EDDP 232020Z 30006KT CAVOK 16/13 Q1015 NOSIG
EDDC - Dresden
Aktualisierung: 23.09.2019 10:20
Klar  
Klar  
   Wind: Westen 13 km/h
Wind: Westen 13 km/h
Temperatur: 16°C
Taupunkt: 11°C
Luftfeuchte: 72%
Luftdruck: 1015 hPa
Sichtbarkeit: More than 10 km
Bewölkung: Klar
EDDC 232020Z 26007KT CAVOK 16/11 Q1015
EDDE - Erfurt
Aktualisierung: 23.09.2019 10:20
leicht bewölkt  
leicht bewölkt  
   Wind: Westen 14.8 km/h
Wind: Westen 14.8 km/h
Temperatur: 14°C
Taupunkt: 13°C
Luftfeuchte: 94%
Luftdruck: 1016 hPa
Bewölkt: leicht bewölkt
Sichtbarkeit: More than 10 km
Bewölkung: leicht bewölkt 1097.3 m
EDDE 232020Z 26008KT 9999 FEW036 14/13 Q1016
EDVE - Braunschweig
Aktualisierung: 23.09.2019 9:50
Bewölkt  
Bewölkt  
   Wind: NNW 7.4 km/h
Wind: NNW 7.4 km/h
Temperatur: 15°C
Taupunkt: 13°C
Luftfeuchte: 88%
Luftdruck: 1015 hPa
Bewölkt: Bewölkt
Sichtbarkeit: More than 10 km
Bewölkung: leicht bewölkt 792.5 m,
Stark bewölkt 944.9 m,
Bewölkt 1645.9 m
EDVE 231950Z 34004KT 9999 FEW026 BKN031 OVC054 15/13 Q1015
EDDV - Hannover
Aktualisierung: 23.09.2019 10:20
Leichter Niederschlag möglich, leicht bewölkt  
Leichter Niederschlag möglich, leicht bewölkt  
   Wind: variiert 3.7 km/h
Wind: variiert 3.7 km/h
Temperatur: 15°C
Taupunkt: 14°C
Luftfeuchte: 94%
Luftdruck: 1016 hPa
Bewölkt: leicht bewölkt
Sichtbarkeit: More than 10 km
Bewölkung: leicht bewölkt 487.7 m
EDDV 232020Z VRB02KT 9999 -RA FEW016 15/14 Q1016 NOSIG
EDDT - Berlin
Aktualisierung: 23.09.2019 10:20
Klar  
Klar  
   Wind: OSO 14.8 km/h
Wind: OSO 14.8 km/h
Temperatur: 19°C
Taupunkt: 12°C
Luftfeuchte: 64%
Luftdruck: 1015 hPa
Sichtbarkeit: More than 10 km
Bewölkung: Klar
EDDT 232020Z 11008KT 070V130 CAVOK 19/12 Q1015 NOSIG
EDDE - Schwerin
Aktualisierung: 23.09.2019 10:20
leicht bewölkt  
leicht bewölkt  
   Wind: Westen 14.8 km/h
Wind: Westen 14.8 km/h
Temperatur: 14°C
Taupunkt: 13°C
Luftfeuchte: 94%
Luftdruck: 1016 hPa
Bewölkt: leicht bewölkt
Sichtbarkeit: More than 10 km
Bewölkung: leicht bewölkt 1097.3 m
EDDE 232020Z 26008KT 9999 FEW036 14/13 Q1016
EDHI - Hamburg
Aktualisierung: 23.09.2019 10:20
Bewölkt  
Bewölkt  
   Wind: WSW 7.4 km/h
Wind: WSW 7.4 km/h
Temperatur: 15°C
Taupunkt: 14°C
Luftfeuchte: 94%
Luftdruck: 1015 hPa
Bewölkt: Bewölkt
Sichtbarkeit: More than 10 km
Bewölkung: Stark bewölkt 975.4 m,
Bewölkt 1219.2 m
EDHI 232020Z AUTO 25004KT 9999 // BKN032/// OVC040/// 15/14 Q1015
EDDK - Köln-Bonn
Aktualisierung: 23.09.2019 10:20
Klar  
Klar  
   Wind: variiert 3.7 km/h
Wind: variiert 3.7 km/h
Temperatur: 14°C
Taupunkt: 12°C
Luftfeuchte: 88%
Luftdruck: 1016 hPa
Sichtbarkeit: More than 10 km
Bewölkung: Klar
EDDK 232020Z VRB02KT CAVOK 14/12 Q1016 NOSIG
EDHL - Lübeck-Blankensee
Aktualisierung: 23.09.2019 8:50
Nicht aktuell
Klar  
Klar  
   Wind: Westen 7.4 km/h
Wind: Westen 7.4 km/h
Temperatur: 15°C
Taupunkt: 12°C
Luftfeuchte: 82%
Luftdruck: 1014 hPa
Sichtbarkeit: More than 10 km
Bewölkung: Klar
EDHL 231850Z 26004KT CAVOK 15/12 Q1014
  

Script entwickelt von  Saratoga-weather.org Angepasst für das Template von  Weerstation Leuven

Sie finden die Wetterinfo auch auf:

Wetternetzwerk Deutschland

European Weather Network

Weather Underground

Regionalwetter-SA

wetter.com

wxforum.de

Genutzte Hardware, Software und WEB Anbieter:

Wetterstation
Ventus W928-Ultimate

Wetterprogramm
Meteohub

WetterComputer
RaspberryPI

Anbieter
WEB Provider One.com

Ventus W928-Ultimate

Meteohub

RaspberryPI

WEB Provider One.com